Caledonia, North Dakota
Current Conditions -  °F | °C
As of 2:14 AM on Tuesday 27 Jan 2015 (Local Time) from KCKN Reporting Station
Haze Haze  
Wind Chill: 27°   Ceiling: 300
Heat Index: 27°   Visibility: 1.2mi
Dew Point: 27°   Wind: 3mph
Humidity: 100%   Direction: 160°SSE
Pressure: 30.06"   Gusts: NA
Location:  47.46°N, 96.88°W
Report Text: KCKN 270814Z AUTO 16003KT 1 1/4SM BR OVC003 M03/M03 A3006 RMK AO2
Loading
Personal Weather Stations






























Interactive Weather Map New forecast layout! Learn more

10-Day Weather Forecast

Advertisements
Track Severe Weather on mobile